createdAt,value
2022-12-27T00:02:40.583Z,4.13
2022-12-27T00:07:43.623Z,3.33
2022-12-27T00:12:45.073Z,4.10
2022-12-27T00:17:46.508Z,3.60
2022-12-27T00:22:47.950Z,1.98
2022-12-27T00:27:49.366Z,2.67
2022-12-27T00:32:50.818Z,1.83
2022-12-27T00:37:52.279Z,2.17
2022-12-27T00:42:53.701Z,3.60
2022-12-27T00:47:55.117Z,2.50
2022-12-27T00:52:56.581Z,2.67
2022-12-27T00:57:58.048Z,4.00
2022-12-27T01:02:59.515Z,3.88
2022-12-27T01:08:00.944Z,4.25
2022-12-27T01:13:04.085Z,2.65
2022-12-27T01:18:05.526Z,3.65
2022-12-27T01:23:06.954Z,1.40
2022-12-27T01:28:08.645Z,2.45
2022-12-27T01:33:10.081Z,4.05
2022-12-27T01:38:11.504Z,2.55
2022-12-27T01:43:19.562Z,2.28
2022-12-27T01:48:23.977Z,2.92
2022-12-27T01:53:33.103Z,3.03
2022-12-27T01:58:58.335Z,2.97
2022-12-27T02:04:04.228Z,2.85
2022-12-27T02:09:20.785Z,2.15
2022-12-27T02:14:30.349Z,3.15
2022-12-27T02:19:38.946Z,4.20
2022-12-27T02:25:10.141Z,4.13
2022-12-27T02:30:13.425Z,5.88
2022-12-27T02:35:18.367Z,2.40
2022-12-27T02:40:41.753Z,2.13
2022-12-27T02:46:09.508Z,1.90
2022-12-27T02:51:49.908Z,2.28
2022-12-27T02:57:39.440Z,2.25
2022-12-27T03:03:21.268Z,2.15
2022-12-27T03:08:36.138Z,6.80
2022-12-27T03:14:14.198Z,3.05
2022-12-27T03:19:40.503Z,3.53
2022-12-27T03:25:00.381Z,1.52
2022-12-27T03:30:25.029Z,3.25
2022-12-27T03:35:28.313Z,4.60
2022-12-27T03:40:37.429Z,6.20
2022-12-27T03:46:26.005Z,3.15
2022-12-27T03:51:32.609Z,5.23
2022-12-27T03:56:34.132Z,4.05
2022-12-27T04:01:35.598Z,4.22
2022-12-27T04:06:37.126Z,5.20
2022-12-27T04:11:56.972Z,5.57
2022-12-27T04:17:17.065Z,4.13
2022-12-27T04:22:37.159Z,5.50
2022-12-27T04:27:57.197Z,3.75
2022-12-27T04:33:17.328Z,5.80
2022-12-27T04:38:18.761Z,5.55
2022-12-27T04:43:38.602Z,5.90
2022-12-27T04:48:58.660Z,4.93
2022-12-27T04:54:18.699Z,4.35
2022-12-27T04:59:38.794Z,5.85
2022-12-27T05:04:40.865Z,4.22
2022-12-27T05:10:01.029Z,5.25
2022-12-27T05:15:02.456Z,5.47
2022-12-27T05:20:04.131Z,8.82
2022-12-27T05:25:24.509Z,6.63
2022-12-27T05:30:26.329Z,6.20
2022-12-27T05:35:28.368Z,10.18
2022-12-27T05:40:29.963Z,4.22
2022-12-27T05:45:32.646Z,4.88
2022-12-27T05:50:34.087Z,7.97
2022-12-27T05:55:35.529Z,5.97
2022-12-27T06:00:37.014Z,4.35
2022-12-27T06:05:38.414Z,3.53
2022-12-27T06:10:40.069Z,6.20
2022-12-27T06:15:41.479Z,5.05
2022-12-27T06:20:42.917Z,4.03
2022-12-27T06:25:44.360Z,7.40
2022-12-27T06:30:45.802Z,4.40
2022-12-27T06:35:47.221Z,5.80
2022-12-27T06:40:48.704Z,3.95
2022-12-27T06:45:57.779Z,4.00
2022-12-27T06:50:59.412Z,5.55
2022-12-27T06:56:12.217Z,5.63
2022-12-27T07:01:19.770Z,5.75
2022-12-27T07:06:22.378Z,3.25
2022-12-27T07:11:24.575Z,3.33
2022-12-27T07:16:28.770Z,5.70
2022-12-27T07:21:30.744Z,4.45
2022-12-27T07:26:32.223Z,10.15
2022-12-27T07:31:34.037Z,5.15
2022-12-27T07:36:38.013Z,4.28
2022-12-27T07:41:39.466Z,6.35
2022-12-27T07:46:40.931Z,8.52
2022-12-27T07:51:42.442Z,4.65
2022-12-27T07:56:43.888Z,4.90
2022-12-27T08:02:04.005Z,5.45
2022-12-27T08:07:16.273Z,4.78
2022-12-27T08:12:17.741Z,6.90
2022-12-27T08:17:22.514Z,4.63
2022-12-27T08:22:24.619Z,7.68
2022-12-27T08:27:26.123Z,5.15
2022-12-27T08:32:27.572Z,6.40
2022-12-27T08:37:28.991Z,5.85
2022-12-27T08:42:30.396Z,4.82
2022-12-27T08:47:31.807Z,7.43
2022-12-27T08:52:34.020Z,6.97
2022-12-27T08:57:35.468Z,4.40
2022-12-27T09:02:37.632Z,4.63
2022-12-27T09:07:39.144Z,5.47
2022-12-27T09:12:41.055Z,3.83
2022-12-27T09:17:42.630Z,4.72
2022-12-27T09:22:44.247Z,6.53
2022-12-27T09:27:45.658Z,6.35
2022-12-27T09:32:47.069Z,4.50
2022-12-27T09:37:48.513Z,6.30
2022-12-27T09:43:22.553Z,5.85
2022-12-27T09:48:36.268Z,6.78
2022-12-27T09:53:45.219Z,5.25
2022-12-27T09:58:55.615Z,3.90
2022-12-27T10:03:57.834Z,3.33
2022-12-27T10:09:30.873Z,4.13
2022-12-27T10:15:06.058Z,4.57
2022-12-27T10:20:22.408Z,4.13
2022-12-27T10:25:25.506Z,4.25
2022-12-27T10:30:30.629Z,4.68
2022-12-27T10:35:32.048Z,4.32
2022-12-27T10:40:53.542Z,4.03
2022-12-27T10:45:55.128Z,8.07
2022-12-27T10:50:59.989Z,4.78
2022-12-27T10:56:20.645Z,3.97
2022-12-27T11:01:27.944Z,6.88
2022-12-27T11:06:29.489Z,3.17
2022-12-27T11:11:30.901Z,1.98
2022-12-27T11:16:35.970Z,3.78
2022-12-27T11:21:40.185Z,6.22
2022-12-27T11:27:02.370Z,4.47
2022-12-27T11:32:07.787Z,4.05
2022-12-27T11:37:15.659Z,4.47
2022-12-27T11:42:38.173Z,3.00
2022-12-27T11:47:47.982Z,4.70
2022-12-27T11:52:54.313Z,2.40
2022-12-27T11:58:09.530Z,5.35
2022-12-27T12:03:55.187Z,6.50
2022-12-27T12:09:21.078Z,4.63
2022-12-27T12:14:41.042Z,2.85
2022-12-27T12:19:54.263Z,2.50
2022-12-27T12:25:15.670Z,4.32
2022-12-27T12:30:35.168Z,4.45
2022-12-27T12:35:58.096Z,3.17
2022-12-27T12:41:21.159Z,3.70
2022-12-27T12:46:47.027Z,6.97
2022-12-27T12:52:25.744Z,7.03
2022-12-27T12:57:49.935Z,9.13
2022-12-27T13:03:22.876Z,5.60
2022-12-27T13:09:03.516Z,3.22
2022-12-27T13:14:28.271Z,5.68
2022-12-27T13:19:51.366Z,4.32
2022-12-27T13:24:58.471Z,5.18
2022-12-27T13:30:15.099Z,4.22
2022-12-27T13:35:38.450Z,4.45
2022-12-27T13:41:01.507Z,5.10
2022-12-27T13:46:08.798Z,4.20
2022-12-27T13:51:16.226Z,7.32
2022-12-27T13:56:57.500Z,4.55
2022-12-27T14:02:33.042Z,4.88
2022-12-27T14:07:56.562Z,3.08
2022-12-27T14:13:12.090Z,3.67
2022-12-27T14:18:19.284Z,7.95
2022-12-27T14:23:51.298Z,4.45
2022-12-27T14:29:27.313Z,5.78
2022-12-27T14:35:01.206Z,6.72
2022-12-27T14:40:42.132Z,4.53
2022-12-27T14:45:58.028Z,8.45
2022-12-27T14:51:50.492Z,5.63
2022-12-27T14:56:54.161Z,8.63
2022-12-27T15:01:55.652Z,7.68
2022-12-27T15:07:16.670Z,6.70
2022-12-27T15:12:23.852Z,7.50
2022-12-27T15:17:53.389Z,8.07
2022-12-27T15:23:13.239Z,8.13
2022-12-27T15:28:19.674Z,7.97
2022-12-27T15:34:00.420Z,5.80
2022-12-27T15:39:02.165Z,7.93
2022-12-27T15:44:31.215Z,8.35
2022-12-27T15:49:32.603Z,7.32
2022-12-27T15:54:43.480Z,7.90
2022-12-27T15:59:54.017Z,8.15
2022-12-27T16:04:58.731Z,8.60
2022-12-27T16:10:20.224Z,9.55
2022-12-27T16:15:44.642Z,11.88
2022-12-27T16:20:55.465Z,11.63
2022-12-27T16:26:06.710Z,9.90
2022-12-27T16:31:12.290Z,9.43
2022-12-27T16:36:28.353Z,12.75
2022-12-27T16:41:53.984Z,11.32
2022-12-27T16:47:01.139Z,13.52
2022-12-27T16:52:08.107Z,11.50
2022-12-27T16:57:24.516Z,13.07
2022-12-27T17:02:32.350Z,16.38
2022-12-27T17:07:52.444Z,12.05
2022-12-27T17:12:59.457Z,14.73
2022-12-27T17:18:16.259Z,16.13
2022-12-27T17:23:17.753Z,14.52
2022-12-27T17:28:31.622Z,13.18
2022-12-27T17:33:42.311Z,10.95
2022-12-27T17:39:21.557Z,12.27
2022-12-27T17:44:38.750Z,10.35
2022-12-27T17:49:40.551Z,8.52
2022-12-27T17:55:00.298Z,8.75
2022-12-27T18:00:02.009Z,10.10
2022-12-27T18:05:15.654Z,9.02
2022-12-27T18:10:24.776Z,7.57
2022-12-27T18:15:33.995Z,10.82
2022-12-27T18:20:37.935Z,10.63
2022-12-27T18:25:43.251Z,10.15
2022-12-27T18:31:09.037Z,14.52
2022-12-27T18:36:33.744Z,14.52
2022-12-27T18:41:41.257Z,15.52
2022-12-27T18:46:42.892Z,15.20
2022-12-27T18:51:44.372Z,15.88
2022-12-27T18:56:51.334Z,16.35
2022-12-27T19:01:54.219Z,16.55
2022-12-27T19:07:14.366Z,37.60
2022-12-27T19:12:21.935Z,44.75
2022-12-27T19:17:30.575Z,58.80
2022-12-27T19:23:02.753Z,61.90
2022-12-27T19:28:10.258Z,53.08
2022-12-27T19:33:28.658Z,45.70
2022-12-27T19:38:33.021Z,35.63
2022-12-27T19:43:38.835Z,30.27
2022-12-27T19:48:41.031Z,29.73
2022-12-27T19:53:44.006Z,28.75
2022-12-27T19:58:46.074Z,18.15
2022-12-27T20:03:47.492Z,20.30
2022-12-27T20:08:50.593Z,19.10
2022-12-27T20:13:52.075Z,17.00
2022-12-27T20:18:54.932Z,20.25
2022-12-27T20:23:56.338Z,23.10
2022-12-27T20:28:58.663Z,18.45
2022-12-27T20:34:00.087Z,16.88
2022-12-27T20:39:01.613Z,20.58
2022-12-27T20:44:03.183Z,23.42
2022-12-27T20:49:04.612Z,23.67
2022-12-27T20:54:07.639Z,24.48
2022-12-27T20:59:09.079Z,23.70
2022-12-27T21:04:10.999Z,21.65
2022-12-27T21:09:12.788Z,23.65
2022-12-27T21:14:14.379Z,22.35
2022-12-27T21:19:15.865Z,17.38
2022-12-27T21:24:17.457Z,21.27
2022-12-27T21:29:19.362Z,22.02
2022-12-27T21:34:20.795Z,17.30
2022-12-27T21:39:22.318Z,15.43
2022-12-27T21:44:25.399Z,16.45
2022-12-27T21:49:26.837Z,19.50
2022-12-27T21:54:28.400Z,12.68
2022-12-27T21:59:29.836Z,14.43
2022-12-27T22:04:31.279Z,12.73
2022-12-27T22:09:32.709Z,12.27
2022-12-27T22:14:36.968Z,10.55
2022-12-27T22:19:38.685Z,10.18
2022-12-27T22:24:40.101Z,9.88
2022-12-27T22:29:41.506Z,10.32
2022-12-27T22:34:42.953Z,11.38
2022-12-27T22:39:44.394Z,11.30
2022-12-27T22:44:45.872Z,12.35
2022-12-27T22:49:47.333Z,16.40
2022-12-27T22:55:05.070Z,20.70
2022-12-27T23:00:12.851Z,19.88
2022-12-27T23:05:14.298Z,18.75
2022-12-27T23:10:15.827Z,18.77
2022-12-27T23:15:17.268Z,19.38
2022-12-27T23:20:19.141Z,20.55
2022-12-27T23:25:20.596Z,19.80
2022-12-27T23:30:22.948Z,19.77
2022-12-27T23:35:24.380Z,19.85
2022-12-27T23:40:25.849Z,16.60
2022-12-27T23:45:27.292Z,22.75
2022-12-27T23:50:28.794Z,17.52
2022-12-27T23:55:30.555Z,15.90
